• Join FlightAware (Why Join?)
  • Login
  • US Flag 
07:54PM EDT


 

Airport Tracker/Info


-or-


 

Live Flight TrackerFlight Track Log ✈ N9305T ✈ 04-Mar-2010 ✈ KHEF - KLKU

Flight Track Log - Related Links

Times and Time Zones

All times are in EST time to prevent confusion due to time zone crossing. See the N9305T flight status page for this flight to view local times or setup timezone preferences in your user account.

Time Position Orientation Groundspeed Altitude Reporting Facility
EST Latitude Longitude Course Direction KTS MPH feet Rate Location/Type
11:47AM 38.7333 -77.5333 270° West 105 121 1,100  Level Potomac TRACON
11:48AM 38.7333 -77.5667 270° West 119 137 2,100 420 Climbing Potomac TRACON
11:49AM 38.7333 -77.6167 237° Southwest 145 167 2,000 240 Descending Potomac TRACON
11:50AM 38.7167 -77.6500 201° Southwest 125 144 2,600 600 Climbing Potomac TRACON
11:51AM 38.6833 -77.6667 201° Southwest 145 167 3,200 600 Climbing Potomac TRACON
11:52AM 38.6500 -77.6833 195° South 139 160 3,800 300 Climbing Potomac TRACON
11:53AM 38.6000 -77.7000 201° Southwest 148 170 3,900  Climbing Potomac TRACON
11:54AM 38.5667 -77.7167 208° Southwest 169 194 3,900  Level Potomac TRACON
11:55AM 38.5167 -77.7500 195° South 169 194 3,900  Level Potomac TRACON
11:56AM 38.4667 -77.7667 195° South 172 198 3,900  Level Potomac TRACON
11:57AM 38.4167 -77.7833 201° Southwest 170 196 4,000  Climbing Potomac TRACON
11:58AM 38.3833 -77.8000 195° South 159 183 4,000 -60 Level Potomac TRACON
11:59AM 38.3333 -77.8167 218° Southwest 162 186 3,900 -60 Descending Potomac TRACON
12:00PM 38.3000 -77.8500 195° South 170 196 3,900  Level Potomac TRACON
12:01PM 38.2500 -77.8667 152° Southeast 165 190 4,000  Climbing Potomac TRACON
12:02PM 38.2000 -77.8333 159° South 180 207 3,900 -180 Descending Potomac TRACON
12:03PM 38.1667 -77.8167 130° Southeast 184 212 3,700 -600 Descending Potomac TRACON
12:04PM 38.1333 -77.7667 142° Southeast 191 220 2,800 -480 Descending Potomac TRACON
12:05PM 38.1000 -77.7333 165° South 157 181 2,800  Level Potomac TRACON
12:06PM 38.0500 -77.7167 165° South 151 174 2,800  Level Potomac TRACON